Terminal Aerodrome Forecast
Issued by NWS Tallahassee, FL

Home | Current Version | Previous Version | Text Only | Print | Product List | Glossary On
Versions: 1 2 3 4 5 6 7 8
000
FTUS42 KTAE 261700
TAFTLH
TAF
KTLH 261720Z 2618/2718 07004KT P6SM SCT200
     FM270900 VRB02KT P6SM BKN200=

USA.gov is the U.S. government's official web portal to all federal, state and local government web resources and services.